.
WxDataArchive / Data Records for 2008-03-16
2008-03-15 March 2008 2008-03-17

Data Records for Sunday, 16 March 2008

Time	Temp	Chill	HIndex	Humid	Dewpt	 Wind 	HiWind	WindDir	Rain 	Barom 
-----	----	-----	------	-----	-----	------	------	-------	-----	----- 
00:00	36.8	36.8	36.8	70	27.9	0	2	90	0.00	29.961 
00:05	36.6	36.6	36.6	71	28.1	0	1	90	0.00	29.963 
00:10	36.5	36.5	36.5	71	28.0	0	0	---	0.00	29.968 
00:15	36.3	36.3	36.3	71	27.8	0	1	90	0.00	29.966 
00:20	36.3	36.3	36.3	72	28.2	0	1	90	0.00	29.969 
00:25	36.0	36.0	36.0	72	27.9	0	1	90	0.00	29.971 
00:30	35.9	35.9	35.9	73	28.1	0	1	90	0.00	29.975 
00:35	35.6	35.6	35.6	73	27.8	0	0	---	0.00	29.978 
00:40	35.5	35.5	35.5	74	28.0	0	1	90	0.00	29.982 
00:45	35.3	35.3	35.3	76	28.5	0	1	90	0.00	29.987 
00:50	35.3	35.3	35.3	77	28.8	0	0	---	0.00	29.988 
00:55	35.2	35.2	35.2	77	28.7	0	1	90	0.00	29.989 
01:00	35.2	35.2	35.2	78	29.0	0	1	90	0.00	29.991 
01:05	35.0	35.0	35.0	78	28.8	0	0	---	0.00	29.991 
01:10	35.0	35.0	35.0	79	29.2	0	0	---	0.00	29.997 
01:15	34.9	34.9	34.9	80	29.4	0	1	90	0.00	29.999 
01:20	34.9	34.9	34.9	80	29.4	0	0	---	0.00	30.001 
01:25	34.7	34.7	34.7	80	29.2	0	0	---	0.00	30.001 
01:30	34.6	34.6	34.6	81	29.4	0	0	---	0.00	30.003 
01:35	34.4	34.4	34.4	81	29.2	0	0	---	0.00	30.005 
01:40	34.1	34.1	34.1	81	28.9	0	0	---	0.00	30.007 
01:45	33.8	33.8	33.8	81	28.6	0	0	---	0.00	30.011 
01:50	33.5	33.5	33.5	81	28.3	0	0	---	0.00	30.016 
01:55	33.2	33.2	33.2	81	28.0	0	0	---	0.00	30.019 
02:00	32.9	32.9	32.9	82	28.0	0	0	---	0.00	30.020 
02:05	32.7	32.7	32.7	82	27.8	0	0	---	0.00	30.021 
02:10	32.4	32.4	32.4	82	27.5	0	1	90	0.00	30.022 
02:15	32.4	32.4	32.4	82	27.5	0	0	---	0.00	30.024 
02:20	32.4	32.4	32.4	82	27.5	0	0	---	0.00	30.029 
02:25	32.4	32.4	32.4	81	27.2	0	0	---	0.00	30.032 
02:30	32.5	32.5	32.5	81	27.3	0	0	---	0.00	30.034 
02:35	32.5	32.5	32.5	80	27.0	0	0	---	0.00	30.036 
02:40	32.5	32.5	32.5	80	27.0	0	1	90	0.00	30.036 
02:45	32.5	32.5	32.5	79	26.7	0	1	90	0.00	30.036 
02:50	32.7	32.7	32.7	79	26.9	0	1	90	0.00	30.036 
02:55	32.7	32.7	32.7	79	26.9	0	1	90	0.00	30.035 
03:00	32.5	32.5	32.5	78	26.4	0	1	90	0.00	30.036 
03:05	32.5	32.5	32.5	78	26.4	0	1	90	0.00	30.037 
03:10	32.4	32.4	32.4	77	26.0	0	1	90	0.00	30.037 
03:15	32.4	32.4	32.4	77	26.0	0	1	90	0.00	30.037 
03:20	32.4	32.4	32.4	77	26.0	0	1	90	0.00	30.039 
03:25	32.4	32.4	32.4	77	26.0	0	1	90	0.00	30.041 
03:30	32.4	32.4	32.4	77	26.0	0	1	90	0.00	30.045 
03:35	32.4	32.4	32.4	77	26.0	0	2	68	0.00	30.047 
03:40	32.4	32.4	32.4	76	25.7	0	1	68	0.00	30.050 
03:45	32.2	32.2	32.2	76	25.5	0	1	68	0.00	30.049 
03:50	32.2	32.2	32.2	76	25.5	0	1	68	0.00	30.051 
03:55	32.1	32.1	32.1	76	25.4	0	1	68	0.00	30.052 
04:00	31.9	31.9	31.9	76	25.2	0	1	68	0.00	30.053 
04:05	31.6	31.6	31.6	76	24.9	0	1	68	0.00	30.057 
04:10	31.5	31.5	31.5	76	24.8	0	1	68	0.00	30.059 
04:15	31.3	31.3	31.3	77	24.9	0	1	68	0.00	30.065 
04:20	31.2	31.2	31.2	77	24.8	0	2	68	0.00	30.068 
04:25	31.0	31.0	31.0	77	24.7	0	1	68	0.00	30.068 
04:30	30.9	30.9	30.9	77	24.6	0	2	68	0.00	30.069 
04:35	30.7	30.7	30.7	77	24.4	0	2	45	0.00	30.070 
04:40	30.6	30.6	30.6	77	24.3	0	1	45	0.00	30.071 
04:45	30.3	30.3	30.3	77	24.0	0	1	45	0.00	30.076 
04:50	30.1	30.1	30.1	78	24.1	0	1	45	0.00	30.082 
04:55	30.0	30.0	30.0	78	24.0	0	1	45	0.00	30.085 
05:00	29.8	29.8	29.8	79	24.1	0	1	45	0.00	30.087 
05:05	29.8	29.8	29.8	79	24.1	0	1	45	0.00	30.088 
05:10	29.8	29.8	29.8	79	24.1	0	1	45	0.00	30.091 
05:15	29.7	29.7	29.7	79	24.0	0	1	45	0.00	30.094 
05:20	29.5	29.5	29.5	79	23.8	0	2	45	0.00	30.095 
05:25	29.5	29.5	29.5	79	23.8	0	2	45	0.00	30.100 
05:30	29.4	29.4	29.4	79	23.7	0	2	22	0.00	30.103 
05:35	29.3	29.3	29.3	79	23.6	0	3	0	0.00	30.105 
05:40	29.1	29.1	29.1	79	23.4	0	2	0	0.00	30.111 
05:45	29.1	29.1	29.1	79	23.4	0	1	0	0.00	30.118 
05:50	29.1	29.1	29.1	79	23.4	0	1	0	0.00	30.119 
05:55	29.1	29.1	29.1	79	23.4	0	1	0	0.00	30.120 
06:00	29.0	29.0	29.0	79	23.3	0	2	0	0.00	30.121 
06:05	29.0	29.0	29.0	79	23.3	0	1	0	0.00	30.126 
06:10	28.8	28.8	28.8	79	23.1	0	1	0	0.00	30.126 
06:15	28.7	28.7	28.7	79	23.0	0	1	0	0.00	30.130 
06:20	28.5	28.5	28.5	79	22.8	0	1	0	0.00	30.134 
06:25	28.4	28.4	28.4	79	22.7	0	1	0	0.00	30.136 
06:30	28.2	28.2	28.2	80	22.8	0	1	0	0.00	30.138 
06:35	28.1	28.1	28.1	80	22.7	0	0	---	0.00	30.143 
06:40	27.8	27.8	27.8	80	22.4	0	0	---	0.00	30.147 
06:45	27.6	27.6	27.6	81	22.5	0	0	---	0.00	30.152 
06:50	27.5	27.5	27.5	81	22.4	0	0	---	0.00	30.151 
06:55	27.5	27.5	27.5	81	22.4	0	1	0	0.00	30.153 
07:00	27.3	27.3	27.3	81	22.3	0	0	---	0.00	30.155 
07:05	27.3	27.3	27.3	82	22.5	0	1	0	0.00	30.159 
07:10	27.5	27.5	27.5	82	22.7	0	1	0	0.00	30.164 
07:15	27.5	27.5	27.5	82	22.7	0	1	0	0.00	30.168 
07:20	27.6	27.6	27.6	81	22.5	0	1	0	0.00	30.168 
07:25	27.8	27.8	27.8	81	22.7	0	1	0	0.00	30.168 
07:30	28.1	28.1	28.1	81	23.0	0	2	0	0.00	30.170 
07:35	28.1	28.1	28.1	80	22.7	0	1	0	0.00	30.170 
07:40	28.1	28.1	28.1	80	22.7	0	3	22	0.00	30.170 
07:45	27.9	27.9	27.9	80	22.5	0	2	22	0.00	30.172 
07:50	28.1	28.1	28.1	79	22.4	1	3	0	0.00	30.176 
07:55	28.4	28.4	28.4	79	22.7	0	2	338	0.00	30.181 
08:00	28.5	28.5	28.5	78	22.5	0	3	338	0.00	30.185 
08:05	29.0	29.0	29.0	77	22.7	0	2	338	0.00	30.187 
08:10	29.1	29.1	29.1	77	22.8	0	2	338	0.00	30.190 
08:15	29.4	29.4	29.4	77	23.1	0	4	0	0.00	30.193 
08:20	29.7	29.7	29.7	76	23.1	0	2	68	0.00	30.199 
08:25	29.8	29.8	29.8	75	22.9	0	2	68	0.00	30.200 
08:30	30.1	30.1	30.1	75	23.2	0	2	0	0.00	30.201 
08:35	30.4	30.4	30.4	75	23.4	0	2	0	0.00	30.202 
08:40	30.9	30.9	30.9	74	23.6	0	1	0	0.00	30.207 
08:45	31.2	31.2	31.2	74	23.9	0	2	0	0.00	30.211 
08:50	31.3	31.3	31.3	73	23.7	0	3	22	0.00	30.214 
08:55	31.8	31.8	31.8	73	24.1	0	2	22	0.00	30.216 
09:00	31.9	31.9	31.9	73	24.2	1	2	22	0.00	30.219 
09:05	32.1	32.1	32.1	73	24.4	0	4	45	0.00	30.224 
09:10	32.2	32.2	32.2	72	24.2	0	2	0	0.00	30.227 
09:15	32.7	32.7	32.7	72	24.7	0	2	0	0.00	30.231 
09:20	32.9	32.9	32.9	71	24.5	1	2	0	0.00	30.235 
09:25	33.5	33.5	33.5	70	24.8	1	4	45	0.00	30.241 
09:30	33.8	33.8	33.8	69	24.7	1	3	45	0.00	30.242 
09:35	34.0	34.0	34.0	69	24.9	1	3	112	0.00	30.246 
09:40	34.1	34.1	34.1	70	25.4	1	4	90	0.00	30.252 
09:45	34.3	34.3	34.3	68	24.9	1	4	22	0.00	30.257 
09:50	34.4	34.4	34.4	70	25.6	1	4	112	0.00	30.259 
09:55	34.7	34.7	34.7	69	25.6	1	3	112	0.00	30.259 
10:00	34.7	34.7	34.7	69	25.6	1	3	68	0.00	30.262 
10:05	34.6	34.6	34.6	69	25.5	1	4	270	0.00	30.263 
10:10	34.9	34.9	34.9	69	25.8	1	3	68	0.00	30.269 
10:15	34.6	34.6	34.6	69	25.5	1	2	68	0.00	30.273 
10:20	35.2	35.2	35.2	69	26.1	1	3	90	0.00	30.274 
10:25	35.5	35.5	35.5	67	25.6	2	5	90	0.00	30.274 
10:30	35.8	35.8	35.8	69	26.6	1	3	90	0.00	30.279 
10:35	36.2	36.2	36.2	67	26.3	1	3	68	0.00	30.276 
10:40	36.8	36.8	36.8	67	26.9	0	2	68	0.00	30.276 
10:45	36.5	36.5	36.5	66	26.2	1	4	90	0.00	30.282 
10:50	36.6	36.6	36.6	67	26.7	1	5	112	0.00	30.285 
10:55	37.3	37.3	37.3	65	26.6	1	5	90	0.00	30.286 
11:00	37.2	37.2	37.2	67	27.3	2	5	90	0.00	30.288 
11:05	37.3	37.3	37.3	65	26.6	2	6	90	0.00	30.290 
11:10	37.6	37.6	37.6	66	27.3	1	4	112	0.00	30.291 
11:15	37.9	37.9	37.9	65	27.2	0	3	68	0.00	30.292 
11:20	37.8	37.8	37.8	63	26.4	1	3	68	0.00	30.292 
11:25	37.3	37.3	37.3	64	26.3	1	3	90	0.00	30.291 
11:30	38.2	38.2	38.2	65	27.5	2	6	112	0.00	30.291 
11:35	38.5	38.5	38.5	63	27.0	0	2	68	0.00	30.293 
11:40	38.3	38.3	38.3	64	27.2	0	2	68	0.00	30.299 
11:45	37.9	37.9	37.9	61	25.7	0	3	45	0.00	30.302 
11:50	37.9	37.9	37.9	65	27.2	1	3	45	0.00	30.303 
11:55	38.3	38.3	38.3	64	27.2	1	3	90	0.00	30.302 
12:00	38.3	38.3	38.3	64	27.2	1	4	112	0.00	30.305 
12:05	38.2	38.2	38.2	65	27.5	1	5	112	0.00	30.306 
12:10	38.0	38.0	38.0	62	26.2	1	4	90	0.00	30.306 
12:15	38.2	38.2	38.2	65	27.5	1	5	90	0.00	30.310 
12:20	38.0	38.0	38.0	62	26.2	1	3	90	0.00	30.312 
12:25	38.2	38.2	38.2	63	26.7	0	3	90	0.00	30.316 
12:30	38.5	38.5	38.5	62	26.6	1	3	45	0.00	30.309 
12:35	38.5	38.5	38.5	61	26.2	1	3	22	0.00	30.313 
12:40	38.3	38.3	38.3	60	25.6	1	4	68	0.00	30.313 
12:45	38.3	38.3	38.3	62	26.4	1	4	45	0.00	30.311 
12:50	39.2	39.2	39.2	62	27.3	1	3	45	0.00	30.315 
12:55	38.9	38.9	38.9	62	27.0	2	6	112	0.00	30.314 
13:00	38.8	38.8	38.8	62	26.9	1	3	68	0.00	30.318 
13:05	38.8	38.8	38.8	59	25.7	0	2	45	0.00	30.319 
13:10	39.3	39.3	39.3	61	27.0	1	2	45	0.00	30.316 
13:15	39.3	39.3	39.3	60	26.6	1	3	45	0.00	30.318 
13:20	39.2	39.2	39.2	60	26.5	1	4	22	0.00	30.316 
13:25	39.6	39.6	39.6	61	27.3	0	2	22	0.00	30.317 
13:30	40.2	40.2	40.2	58	26.6	1	3	112	0.00	30.320 
13:35	40.6	40.6	40.6	58	27.0	1	5	112	0.00	30.318 
13:40	39.6	39.6	39.6	58	26.1	2	4	45	0.00	30.318 
13:45	39.9	39.9	39.9	60	27.2	1	3	112	0.00	30.318 
13:50	40.6	40.6	40.6	58	27.0	1	5	45	0.00	30.318 
13:55	40.5	40.5	40.5	57	26.5	2	5	112	0.00	30.315 
14:00	40.3	40.3	40.3	56	25.9	1	5	112	0.00	30.318 
14:05	40.5	40.5	40.5	59	27.3	1	3	45	0.00	30.315 
14:10	40.2	40.2	40.2	58	26.6	1	3	45	0.00	30.320 
14:15	40.3	40.3	40.3	55	25.4	1	5	68	0.00	30.319 
14:20	40.3	40.3	40.3	57	26.3	1	4	112	0.00	30.320 
14:25	40.6	40.6	40.6	56	26.1	1	4	338	0.00	30.320 
14:30	41.1	41.1	41.1	57	27.0	1	3	45	0.00	30.322 
14:35	41.1	41.1	41.1	55	26.2	0	2	0	0.00	30.326 
14:40	40.6	40.6	40.6	53	24.8	0	3	45	0.00	30.328 
14:45	40.2	40.2	40.2	53	24.5	1	4	112	0.00	30.325 
14:50	40.8	40.8	40.8	54	25.5	1	3	45	0.00	30.324 
14:55	41.3	41.3	41.3	51	24.6	1	3	45	0.00	30.325 
15:00	41.3	41.3	41.3	50	24.1	0	2	315	0.00	30.323 
15:05	41.1	41.1	41.1	53	25.3	2	8	90	0.00	30.325 
15:10	40.9	40.9	40.9	55	26.0	2	6	90	0.00	30.325 
15:15	41.2	41.2	41.2	54	25.8	1	4	90	0.00	30.327 
15:20	41.6	41.6	41.6	54	26.2	2	7	90	0.00	30.324 
15:25	41.6	41.6	41.6	53	25.8	1	2	22	0.00	30.329 
15:30	41.6	41.6	41.6	51	24.8	1	2	0	0.00	30.334 
15:35	41.2	41.2	41.2	53	25.4	1	3	0	0.00	30.334 
15:40	41.2	41.2	41.2	51	24.5	0	2	0	0.00	30.335 
15:45	41.6	41.6	41.6	54	26.2	0	2	0	0.00	30.334 
15:50	41.3	41.3	41.3	53	25.5	1	6	0	0.00	30.336 
15:55	41.1	41.1	41.1	54	25.7	3	11	112	0.00	30.339 
16:00	41.2	41.2	41.2	51	24.5	2	7	112	0.00	30.341 
16:05	40.9	40.9	40.9	52	24.6	1	3	90	0.00	30.343 
16:10	40.5	40.5	40.5	52	24.3	1	5	112	0.00	30.344 
16:15	40.2	40.2	40.2	52	24.0	2	7	112	0.00	30.341 
16:20	40.8	40.8	40.8	55	25.9	1	5	112	0.00	30.341 
16:25	40.9	40.9	40.9	52	24.6	1	4	45	0.00	30.341 
16:30	40.9	40.9	40.9	50	23.7	1	2	45	0.00	30.340 
16:35	41.1	41.1	41.1	53	25.3	1	6	90	0.00	30.342 
16:40	41.1	41.1	41.1	54	25.7	2	4	90	0.00	30.345 
16:45	40.9	40.9	40.9	54	25.6	3	7	112	0.00	30.351 
16:50	40.5	37.9	40.5	52	24.3	4	7	112	0.00	30.352 
16:55	39.9	39.9	39.9	52	23.7	1	5	112	0.00	30.354 
17:00	39.9	39.9	39.9	52	23.7	2	5	112	0.00	30.354 
17:05	39.9	39.9	39.9	51	23.3	3	6	112	0.00	30.356 
17:10	39.9	39.9	39.9	53	24.2	1	5	68	0.00	30.356 
17:15	39.9	39.9	39.9	53	24.2	1	4	90	0.00	30.358 
17:20	39.8	39.8	39.8	55	25.0	1	5	112	0.00	30.357 
17:25	39.8	39.8	39.8	54	24.5	2	4	112	0.00	30.359 
17:30	39.9	39.9	39.9	55	25.1	1	4	45	0.00	30.364 
17:35	39.8	39.8	39.8	57	25.8	1	5	90	0.00	30.370 
17:40	39.6	39.6	39.6	56	25.2	1	2	90	0.00	30.374 
17:45	39.5	39.5	39.5	56	25.1	1	3	90	0.00	30.381 
17:50	39.3	39.3	39.3	55	24.5	0	2	90	0.00	30.381 
17:55	39.1	39.1	39.1	56	24.7	0	3	45	0.00	30.387 
18:00	38.8	38.8	38.8	55	24.0	1	3	68	0.00	30.387 
18:05	38.3	38.3	38.3	56	24.0	0	2	68	0.00	30.386 
18:10	38.2	38.2	38.2	57	24.3	1	3	68	0.00	30.388 
18:15	37.9	37.9	37.9	58	24.5	1	3	68	0.00	30.390 
18:20	37.6	37.6	37.6	58	24.2	1	3	135	0.00	30.392 
18:25	37.3	37.3	37.3	59	24.3	1	3	135	0.00	30.400 
18:30	37.0	37.0	37.0	61	24.8	0	2	135	0.00	30.405 
18:35	36.9	36.9	36.9	61	24.7	0	2	135	0.00	30.404 
18:40	36.6	36.6	36.6	62	24.8	1	6	68	0.00	30.407 
18:45	36.5	36.5	36.5	62	24.7	1	3	112	0.00	30.408 
18:50	36.2	36.2	36.2	63	24.8	0	5	112	0.00	30.410 
18:55	35.9	35.9	35.9	64	24.9	0	2	112	0.00	30.412 
19:00	35.8	35.8	35.8	65	25.2	1	3	112	0.00	30.413 
19:05	35.5	35.5	35.5	65	24.9	0	2	112	0.00	30.418 
19:10	35.3	35.3	35.3	65	24.7	0	2	112	0.00	30.418 
19:15	35.0	35.0	35.0	65	24.4	0	2	68	0.00	30.424 
19:20	34.9	34.9	34.9	66	24.7	0	1	68	0.00	30.424 
19:25	34.6	34.6	34.6	66	24.4	0	2	68	0.00	30.425 
19:30	34.4	34.4	34.4	67	24.6	1	3	68	0.00	30.427 
19:35	34.3	34.3	34.3	67	24.5	1	3	90	0.00	30.427 
19:40	34.1	34.1	34.1	68	24.7	1	6	112	0.00	30.428 
19:45	34.1	34.1	34.1	69	25.0	1	3	112	0.00	30.432 
19:50	33.8	33.8	33.8	69	24.7	1	3	112	0.00	30.438 
19:55	33.7	33.7	33.7	70	25.0	1	6	90	0.00	30.442 
20:00	33.5	33.5	33.5	70	24.8	1	4	112	0.00	30.441 
20:05	33.2	33.2	33.2	71	24.8	1	4	112	0.00	30.440 
20:10	33.1	33.1	33.1	71	24.7	1	5	112	0.00	30.442 
20:15	32.9	32.9	32.9	71	24.5	0	2	112	0.00	30.443 
20:20	32.8	32.8	32.8	71	24.4	1	4	112	0.00	30.444 
20:25	32.7	32.7	32.7	71	24.4	1	3	112	0.00	30.448 
20:30	32.5	32.5	32.5	71	24.2	1	5	112	0.00	30.452 
20:35	32.5	32.5	32.5	71	24.2	1	3	90	0.00	30.453 
20:40	32.4	32.4	32.4	71	24.1	1	3	112	0.00	30.455 
20:45	32.2	32.2	32.2	72	24.2	0	5	112	0.00	30.455 
20:50	32.1	32.1	32.1	72	24.1	1	5	112	0.00	30.457 
20:55	31.9	31.9	31.9	73	24.2	1	3	112	0.00	30.458 
21:00	31.8	31.8	31.8	73	24.1	1	4	112	0.00	30.459 
21:05	31.6	31.6	31.6	73	24.0	0	2	112	0.00	30.458 
21:10	31.5	31.5	31.5	73	23.9	0	1	112	0.00	30.459 
21:15	31.3	31.3	31.3	74	24.0	0	1	112	0.00	30.463 
21:20	31.0	31.0	31.0	74	23.7	1	3	112	0.00	30.463 
21:25	31.0	31.0	31.0	75	24.0	0	1	112	0.00	30.468 
21:30	30.9	30.9	30.9	75	23.9	0	3	112	0.00	30.465 
21:35	30.7	30.7	30.7	75	23.7	0	1	112	0.00	30.464 
21:40	30.6	30.6	30.6	75	23.6	0	1	112	0.00	30.462 
21:45	30.6	30.6	30.6	76	24.0	0	3	112	0.00	30.464 
21:50	30.6	30.6	30.6	76	24.0	0	1	112	0.00	30.465 
21:55	30.4	30.4	30.4	76	23.8	1	3	112	0.00	30.465 
22:00	30.4	30.4	30.4	75	23.4	0	1	135	0.00	30.465 
22:05	30.3	30.3	30.3	75	23.3	0	2	135	0.00	30.468 
22:10	30.3	30.3	30.3	75	23.3	0	1	135	0.00	30.469 
22:15	30.1	30.1	30.1	75	23.2	0	1	135	0.00	30.468 
22:20	30.0	30.0	30.0	76	23.4	0	1	135	0.00	30.469 
22:25	29.8	29.8	29.8	76	23.2	0	1	135	0.00	30.467 
22:30	29.8	29.8	29.8	76	23.2	0	2	135	0.00	30.469 
22:35	29.8	29.8	29.8	76	23.2	0	1	135	0.00	30.470 
22:40	29.7	29.7	29.7	76	23.1	0	0	---	0.00	30.470 
22:45	29.4	29.4	29.4	76	22.8	0	0	---	0.00	30.471 
22:50	29.3	29.3	29.3	76	22.7	0	0	---	0.00	30.469 
22:55	29.0	29.0	29.0	76	22.4	0	0	---	0.00	30.470 
23:00	28.8	28.8	28.8	78	22.8	0	0	---	0.00	30.469 
23:05	28.7	28.7	28.7	78	22.7	0	0	---	0.00	30.468 
23:10	28.5	28.5	28.5	79	22.8	0	1	135	0.00	30.468 
23:15	28.5	28.5	28.5	78	22.5	0	1	135	0.00	30.467 
23:20	28.7	28.7	28.7	78	22.7	0	1	135	0.00	30.467 
23:25	28.5	28.5	28.5	78	22.5	0	1	135	0.00	30.465 
23:30	28.5	28.5	28.5	79	22.8	0	1	135	0.00	30.467 
23:35	28.5	28.5	28.5	78	22.5	0	1	135	0.00	30.466 
23:40	28.7	28.7	28.7	78	22.7	0	1	135	0.00	30.467 
23:45	28.7	28.7	28.7	78	22.7	0	1	135	0.00	30.467 
23:50	28.5	28.5	28.5	78	22.5	0	1	135	0.00	30.468 
23:55	28.5	28.5	28.5	78	22.5	0	1	135	0.00	30.468 

CoCoRaHS
IN-AL-39
A2 Web Hosting
Creative Commons License
GoDaddy
Look for:

loaded 2017-10-18 22:14:09 • last modified 2010-11-18 10:43:29
Privacy PolicyDisclaimer
• wx.awcolley.com is powered by PmWiki v.2002016 •
• all content (unless otherwise noted) © 2017 A W Colley